Time;durP1;ratioP1;P1;durP2;ratioP2;P2;SDS_P1;SDS_P2;PMS_P1;PMS_P2;Temp;Humidity;BMP_temperature;BMP_pressure;BME280_temperature;BME280_humidity;BME280_pressure;Samples;Min_cycle;Max_cycle;Signal;HPM_P1;HPM_P2
2021/12/17 00:00:58;;;;;;;24.05;11.30;;;8.70;99.90;;;;;;5158125;27;20054;-72
2021/12/17 00:03:36;;;;;;;21.58;11.60;;;8.60;99.90;;;;;;5159325;27;20401;-72
2021/12/17 00:06:13;;;;;;;25.65;11.68;;;8.70;99.90;;;;;;5158885;27;20137;-71
2021/12/17 00:08:42;;;;;;;24.95;11.50;;;8.60;99.90;;;;;;5158519;27;20042;-71
2021/12/17 00:11:11;;;;;;;23.13;11.15;;;8.60;99.90;;;;;;5158433;27;20050;-71
2021/12/17 00:13:39;;;;;;;23.92;11.77;;;8.60;99.90;;;;;;5158334;27;20057;-71
2021/12/17 00:16:14;;;;;;;27.25;12.82;;;8.60;99.90;;;;;;5155049;27;20050;-71
2021/12/17 00:18:55;;;;;;;26.30;12.23;;;8.60;99.90;;;;;;5138028;27;20051;-71
2021/12/17 00:49:18;;;;;;;19.73;9.35;;;8.50;99.90;;;;;;5158183;27;19971;-72
2021/12/17 00:51:59;;;;;;;19.42;9.90;;;8.50;99.90;;;;;;5157128;27;20518;-72
2021/12/17 00:54:33;;;;;;;18.33;9.15;;;8.50;99.90;;;;;;5157947;27;20177;-72
2021/12/17 00:57:07;;;;;;;18.90;9.57;;;8.40;99.90;;;;;;5153566;27;20054;-72
2021/12/17 00:59:35;;;;;;;15.95;8.40;;;8.40;99.90;;;;;;5154582;27;20133;-73
2021/12/17 01:02:04;;;;;;;17.50;9.07;;;8.50;99.90;;;;;;5153774;27;20039;-72
2021/12/17 01:04:34;;;;;;;15.27;8.83;;;8.50;99.90;;;;;;5153682;27;20505;-73
2021/12/17 01:07:01;;;;;;;19.17;9.40;;;8.40;99.90;;;;;;5138374;27;20294;-73
2021/12/17 01:09:28;;;;;;;16.88;9.32;;;8.50;99.90;;;;;;5113280;28;20455;-72
2021/12/17 01:11:58;;;;;;;17.42;8.75;;;8.50;99.90;;;;;;5112281;28;20043;-72
2021/12/17 01:14:25;;;;;;;17.08;9.40;;;8.50;99.90;;;;;;5112763;28;20047;-72
2021/12/17 01:16:53;;;;;;;14.88;8.23;;;8.40;99.90;;;;;;5134803;27;20054;-72
2021/12/17 01:19:30;;;;;;;15.20;8.10;;;8.40;99.90;;;;;;5153158;27;20054;-72
2021/12/17 01:22:25;;;;;;;14.57;7.75;;;8.40;99.90;;;;;;5154130;27;20050;-71
2021/12/17 01:24:53;;;;;;;13.93;7.38;;;8.40;99.90;;;;;;5153485;27;20057;-72
2021/12/17 01:35:40;;;;;;;9.35;4.80;;;8.30;99.90;;;;;;5129881;27;20285;-70
2021/12/17 01:41:07;;;;;;;9.88;5.20;;;8.30;99.90;;;;;;5110550;28;20052;-71
2021/12/17 01:43:41;;;;;;;9.52;5.78;;;8.30;99.90;;;;;;5112495;28;20470;-72
2021/12/17 01:46:10;;;;;;;9.00;5.18;;;8.30;99.90;;;;;;5121241;27;20050;-72
2021/12/17 01:48:52;;;;;;;10.50;5.18;;;8.30;99.90;;;;;;5133396;27;20047;-72
2021/12/17 01:56:57;;;;;;;9.75;4.10;;;8.30;99.90;;;;;;5154481;27;20406;-72
2021/12/17 01:59:28;;;;;;;8.23;4.53;;;8.30;99.90;;;;;;5153519;27;20047;-72
2021/12/17 02:02:02;;;;;;;8.20;4.05;;;8.30;99.90;;;;;;5153550;27;20057;-72
2021/12/17 02:04:30;;;;;;;8.52;4.57;;;8.30;99.90;;;;;;5154127;27;20058;-72
2021/12/17 02:06:58;;;;;;;7.32;4.03;;;8.30;99.90;;;;;;5153777;27;20095;-73
2021/12/17 02:20:45;;;;;;;7.88;5.03;;;8.30;99.90;;;;;;5137236;27;20483;-73
2021/12/17 02:28:47;;;;;;;10.32;6.68;;;8.40;99.90;;;;;;5134553;27;20078;-73
2021/12/17 02:31:25;;;;;;;8.20;4.80;;;8.40;99.90;;;;;;5153168;27;20485;-73
2021/12/17 02:33:52;;;;;;;7.55;3.75;;;8.40;99.90;;;;;;5153665;27;20447;-73
2021/12/17 02:36:24;;;;;;;7.50;5.35;;;8.40;99.90;;;;;;5152655;27;20051;-73
2021/12/17 02:38:54;;;;;;;7.60;5.80;;;8.40;99.90;;;;;;5152726;27;20546;-73
2021/12/17 02:46:49;;;;;;;7.30;4.30;;;8.40;99.90;;;;;;5153251;27;20050;-72
2021/12/17 02:49:17;;;;;;;8.82;4.72;;;8.40;99.90;;;;;;5152402;27;20047;-71
2021/12/17 02:51:49;;;;;;;9.10;4.30;;;8.40;99.90;;;;;;5152541;27;20494;-71
2021/12/17 02:54:16;;;;;;;5.68;2.88;;;8.40;99.90;;;;;;5136431;27;20571;-73
2021/12/17 02:56:43;;;;;;;7.78;3.20;;;8.40;99.90;;;;;;5130900;27;20100;-73
2021/12/17 02:59:13;;;;;;;5.50;3.03;;;8.40;99.90;;;;;;5122406;27;20051;-73
2021/12/17 03:01:44;;;;;;;8.23;3.83;;;8.30;99.90;;;;;;5135300;27;20087;-71
2021/12/17 03:04:12;;;;;;;5.78;3.22;;;8.30;99.90;;;;;;5135158;27;20458;-72
2021/12/17 03:06:41;;;;;;;6.65;3.30;;;8.30;99.90;;;;;;5135340;27;20104;-72
2021/12/17 03:09:09;;;;;;;5.25;2.70;;;8.40;99.90;;;;;;5135562;27;20096;-72
2021/12/17 03:11:36;;;;;;;5.30;3.00;;;8.30;99.90;;;;;;5135391;27;20479;-73
2021/12/17 03:14:03;;;;;;;5.90;3.47;;;8.30;99.90;;;;;;5135305;27;20103;-72
2021/12/17 03:16:35;;;;;;;6.72;4.22;;;8.40;99.90;;;;;;5135652;27;20062;-72
2021/12/17 03:19:08;;;;;;;6.20;4.32;;;8.40;99.90;;;;;;5134843;27;20475;-72
2021/12/17 03:24:22;;;;;;;5.88;3.58;;;8.40;99.90;;;;;;5151120;27;20100;-72
2021/12/17 03:26:49;;;;;;;7.65;3.83;;;8.40;99.90;;;;;;5155749;27;20078;-72
2021/12/17 03:29:17;;;;;;;6.57;3.58;;;8.40;99.90;;;;;;5155983;27;20415;-72
2021/12/17 03:31:44;;;;;;;6.22;3.60;;;8.40;99.90;;;;;;5155483;27;20042;-72
2021/12/17 03:34:20;;;;;;;6.53;3.50;;;8.40;99.90;;;;;;5155753;27;20050;-72
2021/12/17 03:36:53;;;;;;;5.68;3.28;;;8.40;99.90;;;;;;5155647;27;20086;-73
2021/12/17 03:39:23;;;;;;;6.38;3.72;;;8.40;99.90;;;;;;5155167;27;20453;-73
2021/12/17 03:41:51;;;;;;;6.93;3.38;;;8.40;99.90;;;;;;5156075;27;20062;-72
2021/12/17 03:44:19;;;;;;;4.20;2.72;;;8.40;99.90;;;;;;5155686;27;20490;-72
2021/12/17 03:46:46;;;;;;;4.43;2.70;;;8.40;99.90;;;;;;5155248;27;20054;-73
2021/12/17 03:49:15;;;;;;;3.78;2.40;;;8.40;99.90;;;;;;5155453;27;20129;-73
2021/12/17 03:51:50;;;;;;;3.67;2.08;;;8.40;99.90;;;;;;5142659;27;20564;-72
2021/12/17 03:54:18;;;;;;;3.28;2.17;;;8.50;99.90;;;;;;5114061;28;20540;-72
2021/12/17 03:56:46;;;;;;;7.70;3.20;;;8.50;99.90;;;;;;5113822;28;20108;-72
2021/12/17 03:59:13;;;;;;;5.78;2.95;;;8.40;99.90;;;;;;5113762;28;20048;-73
2021/12/17 04:01:41;;;;;;;6.53;3.92;;;8.40;99.90;;;;;;5113837;28;20135;-74
2021/12/17 04:04:08;;;;;;;7.20;4.63;;;8.40;99.90;;;;;;5113795;28;20548;-74
2021/12/17 04:06:36;;;;;;;6.05;3.92;;;8.40;99.90;;;;;;5114099;28;20089;-72
2021/12/17 04:09:05;;;;;;;5.55;3.72;;;8.40;99.90;;;;;;5113356;28;20083;-72
2021/12/17 04:11:32;;;;;;;8.77;4.85;;;8.40;99.90;;;;;;5113601;28;20062;-73
2021/12/17 04:14:00;;;;;;;9.00;5.60;;;8.40;99.90;;;;;;5114597;28;20050;-73
2021/12/17 04:16:30;;;;;;;14.23;6.70;;;8.30;99.90;;;;;;5114135;28;20056;-73
2021/12/17 04:18:58;;;;;;;13.63;6.72;;;8.30;99.90;;;;;;5113790;28;20051;-74
2021/12/17 04:21:25;;;;;;;16.23;7.95;;;8.30;99.90;;;;;;5117128;27;20075;-72
2021/12/17 04:23:53;;;;;;;14.25;8.95;;;8.20;99.90;;;;;;5113891;28;20051;-71
2021/12/17 04:26:21;;;;;;;15.45;8.48;;;8.30;99.90;;;;;;5113564;28;20142;-73
2021/12/17 04:28:51;;;;;;;13.63;7.90;;;8.20;99.90;;;;;;5113190;28;20047;-71
2021/12/17 04:31:23;;;;;;;18.08;9.85;;;8.20;99.90;;;;;;5113688;28;20121;-72
2021/12/17 04:33:50;;;;;;;11.63;7.13;;;8.20;99.90;;;;;;5120853;28;20259;-73
2021/12/17 04:36:23;;;;;;;13.40;7.88;;;8.20;99.90;;;;;;5119347;28;20043;-73
2021/12/17 04:38:51;;;;;;;13.35;8.48;;;8.20;99.90;;;;;;5125935;28;20071;-72
2021/12/17 04:41:39;;;;;;;16.60;9.40;;;8.20;99.90;;;;;;5125643;28;20059;-72
2021/12/17 04:44:15;;;;;;;13.10;8.20;;;8.20;99.90;;;;;;5114538;28;20054;-73
2021/12/17 04:46:49;;;;;;;16.10;9.50;;;8.10;99.90;;;;;;5116020;28;20078;-73
2021/12/17 04:57:31;;;;;;;14.57;8.27;;;8.10;99.90;;;;;;5153436;27;20490;-72
2021/12/17 05:00:02;;;;;;;20.60;11.80;;;8.10;99.90;;;;;;5154545;27;20062;-72
2021/12/17 05:02:32;;;;;;;16.25;9.10;;;8.10;99.90;;;;;;5154300;27;20112;-72
2021/12/17 05:05:05;;;;;;;20.15;11.05;;;8.10;99.90;;;;;;5154022;27;20047;-72
2021/12/17 05:07:32;;;;;;;15.10;9.45;;;8.00;99.90;;;;;;5119021;27;20052;-71
2021/12/17 05:10:07;;;;;;;19.45;11.00;;;8.00;99.90;;;;;;5128298;27;20181;-71
2021/12/17 05:18:18;;;;;;;14.38;8.93;;;8.00;99.90;;;;;;5083225;27;20057;-71
2021/12/17 05:20:48;;;;;;;14.52;8.38;;;8.10;99.90;;;;;;5131738;27;20050;-71
2021/12/17 05:23:15;;;;;;;16.20;9.48;;;8.10;99.90;;;;;;5129018;27;20043;-70
2021/12/17 05:25:42;;;;;;;15.82;9.35;;;8.10;99.90;;;;;;5127345;27;20435;-70
2021/12/17 05:28:09;;;;;;;12.20;7.45;;;8.10;99.90;;;;;;5131792;27;20043;-70
2021/12/17 05:30:39;;;;;;;16.30;9.07;;;8.10;99.90;;;;;;5133328;27;20313;-70
2021/12/17 05:33:07;;;;;;;14.25;8.60;;;8.10;99.90;;;;;;5126716;27;20127;-72
2021/12/17 05:35:34;;;;;;;19.58;10.32;;;8.20;99.90;;;;;;5125901;27;20117;-72
2021/12/17 05:38:01;;;;;;;15.57;8.98;;;8.10;99.90;;;;;;5130756;27;20047;-71
2021/12/17 05:40:28;;;;;;;20.42;10.90;;;8.10;99.90;;;;;;5127615;27;20043;-72
2021/12/17 05:42:59;;;;;;;18.83;10.85;;;8.20;99.90;;;;;;5128471;27;20051;-71
2021/12/17 05:45:34;;;;;;;13.95;8.52;;;8.10;99.90;;;;;;5127810;27;20049;-72
2021/12/17 05:48:03;;;;;;;18.17;9.38;;;8.10;99.90;;;;;;5126822;27;20051;-71
2021/12/17 05:50:32;;;;;;;18.58;9.98;;;8.10;99.90;;;;;;5129434;27;20445;-71
2021/12/17 05:52:59;;;;;;;18.27;10.20;;;8.10;99.90;;;;;;5129138;27;20055;-71
2021/12/17 05:55:26;;;;;;;20.90;10.23;;;8.10;99.90;;;;;;5123662;27;20046;-70
2021/12/17 05:57:54;;;;;;;18.60;9.35;;;8.10;99.90;;;;;;5120242;27;20120;-70
2021/12/17 06:00:22;;;;;;;15.63;9.45;;;8.10;99.90;;;;;;5110257;27;20043;-70
2021/12/17 06:02:50;;;;;;;21.75;9.77;;;8.10;99.90;;;;;;5113040;27;20457;-71
2021/12/17 06:05:18;;;;;;;18.23;9.32;;;8.10;99.90;;;;;;5114794;28;20089;-71
2021/12/17 06:07:46;;;;;;;20.45;9.88;;;8.10;99.90;;;;;;5118595;28;20043;-72
2021/12/17 06:10:13;;;;;;;18.08;9.48;;;8.10;99.90;;;;;;5114344;28;20048;-71
2021/12/17 06:12:40;;;;;;;16.38;8.77;;;8.10;99.90;;;;;;5117130;28;20148;-73
2021/12/17 06:15:09;;;;;;;20.20;11.02;;;8.10;99.90;;;;;;5117443;27;20096;-72
2021/12/17 06:17:36;;;;;;;19.42;9.30;;;8.10;99.90;;;;;;5118013;28;20070;-71
2021/12/17 06:20:05;;;;;;;18.80;9.70;;;8.00;99.90;;;;;;5115988;28;20047;-72
2021/12/17 06:22:32;;;;;;;16.73;8.88;;;8.10;99.90;;;;;;5114101;28;20048;-72
2021/12/17 06:25:01;;;;;;;19.83;10.68;;;8.00;99.90;;;;;;5116703;28;20056;-71
2021/12/17 06:27:28;;;;;;;21.95;10.63;;;8.00;99.90;;;;;;5117707;28;20469;-72
2021/12/17 06:29:55;;;;;;;24.17;10.02;;;8.00;99.90;;;;;;5116575;28;20052;-71
2021/12/17 06:32:22;;;;;;;23.67;10.30;;;8.00;99.90;;;;;;5111086;28;20101;-72
2021/12/17 06:34:49;;;;;;;21.50;10.68;;;8.00;99.90;;;;;;5110158;27;20044;-72
2021/12/17 06:37:17;;;;;;;21.98;10.68;;;7.90;99.90;;;;;;5112611;27;20058;-71
2021/12/17 06:39:44;;;;;;;17.27;9.10;;;7.90;99.90;;;;;;5116000;27;20056;-71
2021/12/17 06:42:13;;;;;;;24.67;10.93;;;7.90;99.90;;;;;;5114622;27;20048;-71
2021/12/17 06:44:40;;;;;;;19.80;10.15;;;7.90;99.90;;;;;;5110372;27;20147;-71
2021/12/17 06:47:13;;;;;;;22.10;10.50;;;7.90;99.90;;;;;;5118243;27;20119;-71
2021/12/17 06:49:51;;;;;;;22.00;10.35;;;7.90;99.90;;;;;;5122716;27;20050;-72
2021/12/17 06:55:14;;;;;;;24.95;11.15;;;7.90;99.90;;;;;;5119243;27;20035;-72
2021/12/17 07:00:40;;;;;;;20.15;10.32;;;7.90;99.90;;;;;;5118156;27;20143;-70
2021/12/17 07:06:01;;;;;;;16.65;9.98;;;8.00;99.90;;;;;;5114296;27;20071;-72
2021/12/17 07:11:37;;;;;;;16.02;8.93;;;8.00;99.90;;;;;;5114924;27;20491;-70
2021/12/17 07:22:25;;;;;;;14.13;8.80;;;8.10;99.90;;;;;;5111580;27;20047;-71
2021/12/17 07:28:05;;;;;;;21.00;9.07;;;8.10;99.90;;;;;;5113683;27;20119;-71
2021/12/17 07:33:14;;;;;;;15.00;8.68;;;8.10;99.90;;;;;;5116651;27;20530;-69
2021/12/17 07:35:48;;;;;;;20.00;10.32;;;8.20;99.90;;;;;;5118570;27;20043;-71
2021/12/17 07:41:01;;;;;;;17.73;9.68;;;8.20;99.90;;;;;;5116353;27;20073;-71
2021/12/17 07:43:36;;;;;;;15.82;8.50;;;8.20;99.90;;;;;;5117559;27;20040;-71
2021/12/17 07:46:06;;;;;;;15.43;8.55;;;8.20;99.90;;;;;;5119830;27;20047;-71
2021/12/17 07:48:34;;;;;;;17.73;8.60;;;8.20;99.90;;;;;;5121557;27;20108;-71
2021/12/17 07:51:03;;;;;;;13.05;7.88;;;8.30;99.90;;;;;;5113558;27;20051;-71
2021/12/17 07:53:30;;;;;;;16.55;9.07;;;8.30;99.90;;;;;;5116838;27;20126;-71
2021/12/17 07:55:57;;;;;;;15.85;8.70;;;8.30;99.90;;;;;;5112268;27;20048;-71
2021/12/17 07:58:24;;;;;;;16.17;8.70;;;8.30;99.90;;;;;;5115243;27;20364;-72
2021/12/17 08:00:51;;;;;;;14.63;8.25;;;8.40;99.90;;;;;;5111495;27;20093;-72
2021/12/17 08:03:20;;;;;;;14.50;7.97;;;8.40;99.90;;;;;;5118565;27;20127;-71
2021/12/17 08:05:47;;;;;;;16.38;9.02;;;8.40;99.90;;;;;;5114451;27;20050;-71
2021/12/17 08:08:14;;;;;;;16.42;9.27;;;8.30;99.90;;;;;;5113622;27;20071;-72
2021/12/17 08:10:41;;;;;;;14.75;8.40;;;8.40;99.90;;;;;;5112635;27;20087;-71
2021/12/17 08:13:15;;;;;;;16.63;8.60;;;8.40;99.90;;;;;;5116693;27;20079;-72
2021/12/17 08:15:49;;;;;;;13.70;8.00;;;8.40;99.90;;;;;;5109506;27;20047;-72
2021/12/17 08:18:42;;;;;;;19.75;9.60;;;8.50;99.90;;;;;;5113864;27;20054;-72
2021/12/17 08:24:37;;;;;;;13.30;7.55;;;8.50;99.90;;;;;;5111507;27;20089;-69
2021/12/17 08:27:07;;;;;;;12.63;7.55;;;8.50;99.90;;;;;;5106081;27;20063;-71
2021/12/17 08:29:51;;;;;;;13.27;7.93;;;8.50;99.90;;;;;;5109887;27;20048;-72
2021/12/17 08:32:18;;;;;;;13.15;7.55;;;8.50;99.90;;;;;;5117120;27;20414;-72
2021/12/17 08:34:45;;;;;;;12.27;8.20;;;8.00;99.90;;;;;;5117113;27;20123;-74
2021/12/17 08:37:13;;;;;;;18.60;9.15;;;8.60;99.90;;;;;;5119144;27;20093;-71
2021/12/17 08:39:40;;;;;;;19.48;9.10;;;8.60;99.90;;;;;;5119040;27;20063;-72
2021/12/17 08:42:08;;;;;;;14.50;9.02;;;8.60;99.90;;;;;;5114398;27;20135;-72
2021/12/17 08:44:35;;;;;;;12.98;8.23;;;8.70;99.90;;;;;;5117053;27;20122;-72
2021/12/17 08:47:02;;;;;;;14.07;7.80;;;8.70;99.90;;;;;;5116737;27;20135;-73
2021/12/17 08:49:29;;;;;;;15.40;8.75;;;8.70;99.90;;;;;;5115671;27;20058;-72
2021/12/17 08:51:55;;;;;;;14.70;7.88;;;8.80;99.90;;;;;;5113549;27;20060;-71
2021/12/17 08:54:23;;;;;;;14.85;8.00;;;8.80;99.90;;;;;;5114868;27;20527;-72
2021/12/17 08:56:50;;;;;;;13.60;7.93;;;8.80;99.90;;;;;;5120121;27;20099;-71
2021/12/17 08:59:18;;;;;;;13.55;8.32;;;8.80;99.90;;;;;;5130455;27;20091;-72
2021/12/17 09:01:46;;;;;;;13.38;7.88;;;8.80;99.90;;;;;;5129489;27;20057;-71
2021/12/17 09:04:13;;;;;;;12.73;7.55;;;8.80;99.90;;;;;;5135842;27;20122;-71
2021/12/17 09:06:40;;;;;;;12.27;6.93;;;8.90;99.90;;;;;;5133787;27;20050;-72
2021/12/17 09:09:07;;;;;;;12.00;6.53;;;8.90;99.90;;;;;;5131767;27;20132;-72
2021/12/17 09:11:36;;;;;;;10.02;6.10;;;8.90;99.90;;;;;;5130564;27;20439;-71
2021/12/17 09:14:04;;;;;;;10.88;7.00;;;9.00;99.90;;;;;;5133059;27;20042;-71
2021/12/17 09:16:31;;;;;;;11.35;6.57;;;9.00;99.90;;;;;;5131230;27;20099;-71
2021/12/17 09:18:58;;;;;;;13.25;5.97;;;9.00;99.90;;;;;;5132343;27;20146;-71
2021/12/17 09:21:25;;;;;;;11.32;6.05;;;9.10;99.90;;;;;;5133078;27;20078;-71
2021/12/17 09:23:52;;;;;;;11.68;5.75;;;9.10;99.90;;;;;;5129972;27;20081;-72
2021/12/17 09:26:20;;;;;;;9.35;5.78;;;9.10;99.90;;;;;;5133103;27;20055;-71
2021/12/17 09:28:49;;;;;;;9.30;5.50;;;9.10;99.90;;;;;;5132023;27;20057;-71
2021/12/17 09:31:17;;;;;;;10.43;5.32;;;9.20;99.90;;;;;;5131282;27;20455;-72
2021/12/17 09:33:45;;;;;;;11.18;5.75;;;9.20;99.90;;;;;;5130928;27;20058;-72
2021/12/17 09:36:13;;;;;;;8.27;4.75;;;9.20;99.90;;;;;;5131392;27;20047;-72
2021/12/17 09:38:40;;;;;;;11.75;5.53;;;9.20;99.90;;;;;;5132285;27;20396;-72
2021/12/17 09:41:07;;;;;;;8.27;4.68;;;9.30;99.90;;;;;;5128609;27;20054;-72
2021/12/17 09:43:36;;;;;;;8.05;4.90;;;9.30;99.90;;;;;;5132539;27;20063;-73
2021/12/17 09:46:06;;;;;;;8.65;4.97;;;9.30;99.90;;;;;;5131633;27;20446;-72
2021/12/17 09:48:34;;;;;;;10.25;6.03;;;9.30;99.90;;;;;;5132369;27;20398;-71
2021/12/17 09:51:01;;;;;;;9.57;5.15;;;9.40;99.90;;;;;;5132461;27;20047;-72
2021/12/17 09:53:28;;;;;;;8.85;5.32;;;9.40;99.90;;;;;;5130230;27;20115;-72
2021/12/17 09:55:56;;;;;;;12.48;5.57;;;9.40;99.90;;;;;;5152148;27;20114;-72
2021/12/17 09:58:23;;;;;;;9.23;4.93;;;9.40;99.90;;;;;;5131618;27;20047;-72
2021/12/17 10:00:50;;;;;;;9.90;5.93;;;9.40;99.90;;;;;;5129375;27;20054;-72
2021/12/17 10:03:20;;;;;;;11.15;5.45;;;9.40;99.90;;;;;;5134615;27;20567;-71
2021/12/17 10:05:47;;;;;;;9.90;6.07;;;9.40;99.90;;;;;;5134213;27;20119;-71
2021/12/17 10:08:17;;;;;;;12.02;6.18;;;9.40;99.90;;;;;;5130830;28;20078;-71
2021/12/17 10:10:46;;;;;;;14.25;5.93;;;9.40;99.90;;;;;;5141930;27;20049;-72
2021/12/17 10:13:15;;;;;;;13.27;5.90;;;9.50;99.90;;;;;;5140360;27;20058;-72
2021/12/17 10:15:44;;;;;;;12.38;6.30;;;9.50;99.90;;;;;;5140344;27;20076;-71
2021/12/17 10:18:11;;;;;;;11.35;6.03;;;9.50;99.90;;;;;;5137663;27;20070;-72
2021/12/17 10:20:54;;;;;;;11.20;5.70;;;9.50;99.90;;;;;;5149953;27;20071;-72
2021/12/17 10:23:22;;;;;;;9.30;5.00;;;9.40;99.90;;;;;;5155669;27;20085;-72
2021/12/17 10:25:50;;;;;;;12.07;6.18;;;9.40;99.90;;;;;;5152581;27;20178;-70
2021/12/17 10:28:17;;;;;;;10.55;5.85;;;9.40;99.90;;;;;;5142382;27;20092;-71
2021/12/17 10:30:47;;;;;;;12.05;5.38;;;9.40;99.90;;;;;;5143553;27;20042;-71
2021/12/17 10:33:21;;;;;;;14.10;5.57;;;9.50;99.90;;;;;;5141117;27;20402;-71
2021/12/17 10:35:51;;;;;;;14.50;5.30;;;9.50;99.90;;;;;;5140736;27;20509;-71
2021/12/17 10:38:23;;;;;;;10.57;6.35;;;9.50;99.90;;;;;;5141661;27;20043;-71
2021/12/17 10:40:55;;;;;;;7.53;4.85;;;9.50;99.90;;;;;;5140250;27;20118;-73
2021/12/17 10:43:26;;;;;;;10.80;5.05;;;9.60;99.90;;;;;;5140817;27;20050;-72
2021/12/17 10:46:03;;;;;;;8.90;5.80;;;9.60;99.90;;;;;;5140103;27;20081;-71
2021/12/17 10:48:35;;;;;;;9.07;4.78;;;9.60;99.90;;;;;;5139589;27;20172;-71
2021/12/17 10:51:18;;;;;;;8.95;5.20;;;9.60;99.90;;;;;;5141796;27;20146;-72
2021/12/17 10:53:46;;;;;;;8.52;4.95;;;9.70;99.90;;;;;;5140135;27;20047;-71
2021/12/17 10:56:17;;;;;;;12.85;5.28;;;9.70;99.90;;;;;;5139357;27;20043;-71
2021/12/17 10:58:57;;;;;;;7.35;5.15;;;9.70;99.90;;;;;;5141604;27;20051;-71
2021/12/17 11:01:33;;;;;;;9.13;4.60;;;9.80;99.90;;;;;;5145528;27;20051;-72
2021/12/17 11:04:09;;;;;;;10.63;5.10;;;9.80;99.90;;;;;;5141065;27;20055;-72
2021/12/17 11:06:53;;;;;;;9.73;4.63;;;9.80;99.90;;;;;;5140464;27;20050;-71
2021/12/17 11:09:40;;;;;;;7.63;4.70;;;9.80;99.90;;;;;;5154793;27;20046;-71
2021/12/17 11:12:25;;;;;;;11.27;4.60;;;9.80;99.90;;;;;;5136296;27;20103;-71
2021/12/17 11:14:53;;;;;;;7.63;4.90;;;9.80;99.90;;;;;;5132412;27;20058;-71
2021/12/17 11:17:21;;;;;;;9.48;4.78;;;9.90;99.90;;;;;;5138132;27;20397;-71
2021/12/17 11:19:52;;;;;;;8.88;4.47;;;9.90;99.90;;;;;;5139842;27;20056;-71
2021/12/17 11:22:23;;;;;;;11.77;4.38;;;9.90;99.90;;;;;;5134066;27;20490;-72
2021/12/17 11:24:51;;;;;;;8.70;5.28;;;10.00;99.90;;;;;;5136527;27;20091;-71
2021/12/17 11:27:18;;;;;;;5.65;4.20;;;10.00;99.90;;;;;;5136658;27;20046;-72
2021/12/17 11:29:45;;;;;;;10.25;4.55;;;10.00;99.90;;;;;;5136907;27;20055;-72
2021/12/17 11:32:13;;;;;;;6.63;4.20;;;10.10;99.90;;;;;;5135330;27;20561;-72
2021/12/17 11:34:42;;;;;;;6.60;3.72;;;10.10;99.90;;;;;;5142768;27;20035;-72
2021/12/17 11:37:10;;;;;;;6.78;4.00;;;10.10;99.90;;;;;;5137290;27;20055;-72
2021/12/17 11:39:44;;;;;;;7.53;4.05;;;10.00;99.90;;;;;;5137864;27;20451;-72
2021/12/17 11:42:28;;;;;;;5.93;3.20;;;10.10;99.90;;;;;;5137583;27;20160;-72
2021/12/17 11:47:37;;;;;;;5.72;3.75;;;10.10;99.90;;;;;;5141410;27;20401;-72
2021/12/17 11:50:06;;;;;;;5.57;3.83;;;10.00;99.90;;;;;;5138237;27;20123;-72
2021/12/17 11:52:41;;;;;;;6.80;3.80;;;10.00;99.90;;;;;;5136066;27;20074;-72
2021/12/17 11:55:34;;;;;;;5.38;3.58;;;10.00;99.90;;;;;;5137177;27;20047;-72
2021/12/17 11:58:06;;;;;;;5.15;3.40;;;10.00;99.90;;;;;;5134101;27;20053;-72
2021/12/17 12:00:50;;;;;;;6.00;3.47;;;10.00;99.90;;;;;;5155715;27;20049;-72
2021/12/17 12:03:19;;;;;;;16.88;4.03;;;10.00;99.90;;;;;;5139827;27;20050;-73
2021/12/17 12:05:47;;;;;;;4.57;3.20;;;10.00;99.90;;;;;;5135777;27;20127;-71
2021/12/17 12:08:32;;;;;;;4.70;3.20;;;10.00;99.90;;;;;;5140036;27;20107;-72
2021/12/17 12:11:09;;;;;;;5.65;3.60;;;10.00;99.90;;;;;;5132586;27;20058;-72
2021/12/17 12:13:39;;;;;;;6.72;4.30;;;10.00;99.90;;;;;;5134729;27;20054;-72
2021/12/17 12:16:07;;;;;;;5.32;3.88;;;10.00;99.90;;;;;;5151600;27;20072;-72
2021/12/17 12:18:50;;;;;;;6.22;3.67;;;10.00;99.90;;;;;;5107012;27;20061;-72
2021/12/17 12:21:17;;;;;;;6.18;4.50;;;9.90;99.90;;;;;;5134896;27;20130;-73
2021/12/17 12:23:53;;;;;;;5.72;3.50;;;10.00;99.90;;;;;;5138419;27;20054;-72
2021/12/17 12:26:27;;;;;;;6.97;4.35;;;10.00;99.90;;;;;;5135325;27;20114;-73
2021/12/17 12:29:05;;;;;;;7.28;3.70;;;10.00;99.90;;;;;;5139580;27;20099;-72
2021/12/17 12:31:48;;;;;;;6.47;4.25;;;9.90;99.90;;;;;;5115214;27;20051;-73
2021/12/17 12:34:17;;;;;;;4.90;3.78;;;9.90;99.90;;;;;;5103777;27;20073;-73
2021/12/17 12:36:54;;;;;;;7.30;4.80;;;10.00;99.90;;;;;;5116376;27;20452;-72
2021/12/17 12:39:23;;;;;;;6.93;4.57;;;10.00;99.90;;;;;;5116862;27;20083;-72
2021/12/17 12:42:00;;;;;;;7.15;4.90;;;9.90;99.90;;;;;;5134540;27;20095;-72
2021/12/17 12:45:07;;;;;;;5.85;4.05;;;9.90;99.90;;;;;;5132542;27;20111;-71
2021/12/17 12:47:48;;;;;;;6.53;4.45;;;9.90;99.90;;;;;;5134856;27;20043;-71
2021/12/17 12:50:17;;;;;;;7.60;3.75;;;9.90;99.90;;;;;;5135235;27;20051;-70
2021/12/17 12:52:45;;;;;;;5.10;3.38;;;9.90;99.90;;;;;;5135531;27;20428;-71
2021/12/17 12:55:16;;;;;;;6.13;2.97;;;10.00;99.90;;;;;;5134761;27;20053;-72
2021/12/17 12:57:46;;;;;;;7.22;3.53;;;10.00;99.90;;;;;;5135318;27;20054;-70
2021/12/17 13:00:18;;;;;;;9.40;3.63;;;9.90;99.90;;;;;;5154374;27;20150;-71
2021/12/17 13:02:47;;;;;;;5.40;3.83;;;10.00;99.90;;;;;;5134792;27;20046;-72
2021/12/17 13:05:14;;;;;;;5.68;4.25;;;10.00;99.90;;;;;;5142178;27;20146;-71
2021/12/17 13:07:43;;;;;;;6.93;4.10;;;10.00;99.90;;;;;;5139476;27;20059;-71
2021/12/17 13:10:13;;;;;;;6.10;3.40;;;10.00;99.90;;;;;;5134986;27;20051;-70
2021/12/17 13:12:41;;;;;;;3.90;2.63;;;9.90;99.90;;;;;;5132636;27;20074;-72
2021/12/17 13:15:19;;;;;;;5.07;3.45;;;10.00;99.90;;;;;;5135176;27;20043;-72
2021/12/17 13:20:58;;;;;;;5.32;4.15;;;9.90;99.90;;;;;;5135208;27;20045;-72
2021/12/17 13:23:25;;;;;;;5.05;3.65;;;9.90;99.90;;;;;;5135132;27;20042;-72
2021/12/17 13:26:05;;;;;;;5.65;3.13;;;9.90;99.90;;;;;;5134355;27;20091;-72
2021/12/17 13:28:53;;;;;;;6.00;3.88;;;9.90;99.90;;;;;;5131843;27;20043;-72
2021/12/17 13:31:43;;;;;;;7.38;4.32;;;9.90;99.90;;;;;;5127459;27;20051;-70
2021/12/17 13:34:14;;;;;;;6.22;3.75;;;9.90;99.90;;;;;;5131489;27;20081;-71
2021/12/17 13:36:50;;;;;;;;;;;9.90;99.90;;;;;;5134454;27;20074;-72
2021/12/17 13:39:17;;;;;;;5.13;3.20;;;9.90;99.90;;;;;;5134891;27;20378;-71
2021/12/17 13:41:46;;;;;;;4.80;3.45;;;9.90;99.90;;;;;;5134558;27;20051;-73
2021/12/17 13:44:29;;;;;;;5.47;3.67;;;9.90;99.90;;;;;;5132830;27;20081;-72
2021/12/17 13:47:09;;;;;;;5.95;3.90;;;10.00;99.90;;;;;;5134105;27;20047;-72
2021/12/17 13:49:37;;;;;;;5.57;3.13;;;9.90;99.90;;;;;;5153104;27;20558;-72
2021/12/17 13:52:04;;;;;;;4.78;3.90;;;9.90;99.90;;;;;;5133877;27;20077;-71
2021/12/17 13:54:31;;;;;;;6.30;4.10;;;9.90;99.90;;;;;;5136152;27;20093;-71
2021/12/17 13:56:58;;;;;;;5.72;4.00;;;9.90;99.90;;;;;;5130593;27;20495;-72
2021/12/17 13:59:29;;;;;;;5.68;3.95;;;9.90;99.90;;;;;;5131846;27;20448;-72
2021/12/17 14:01:57;;;;;;;5.45;3.63;;;9.90;99.90;;;;;;5131290;27;20354;-72
2021/12/17 14:04:25;;;;;;;5.72;4.28;;;9.90;99.90;;;;;;5132231;27;20071;-71
2021/12/17 14:06:53;;;;;;;7.40;4.35;;;10.00;99.90;;;;;;5130267;27;20111;-71
2021/12/17 14:09:23;;;;;;;7.55;4.60;;;9.90;99.90;;;;;;5130807;28;20494;-71
2021/12/17 14:11:50;;;;;;;8.48;4.22;;;9.90;99.90;;;;;;5130160;28;20517;-72
2021/12/17 14:14:22;;;;;;;8.10;4.60;;;9.90;99.90;;;;;;5130772;28;20055;-72
2021/12/17 14:16:57;;;;;;;9.05;5.30;;;9.90;99.90;;;;;;5131150;28;20044;-72
2021/12/17 14:19:38;;;;;;;5.13;3.95;;;9.90;99.90;;;;;;5133865;27;20130;-72
2021/12/17 14:22:27;;;;;;;5.88;4.13;;;9.90;99.90;;;;;;5130450;28;20088;-72
2021/12/17 14:24:55;;;;;;;5.30;4.45;;;9.90;99.90;;;;;;5130466;28;20055;-72
2021/12/17 14:27:22;;;;;;;6.78;4.43;;;9.80;99.90;;;;;;5126699;28;20564;-72
2021/12/17 14:30:02;;;;;;;6.28;4.22;;;9.80;99.90;;;;;;5129143;28;20076;-71
2021/12/17 14:32:29;;;;;;;7.13;4.13;;;9.80;99.90;;;;;;5130526;28;20047;-71
2021/12/17 14:34:57;;;;;;;5.53;4.00;;;9.80;99.90;;;;;;5130323;27;20094;-71
2021/12/17 14:37:24;;;;;;;5.90;4.40;;;9.80;99.90;;;;;;5130005;28;20043;-71
2021/12/17 14:39:54;;;;;;;5.90;3.88;;;9.80;99.90;;;;;;5130542;28;20047;-70
2021/12/17 14:42:34;;;;;;;5.90;4.38;;;9.80;99.90;;;;;;5130146;28;20055;-71
2021/12/17 14:45:05;;;;;;;8.30;4.60;;;9.80;99.90;;;;;;5129917;28;20055;-71
2021/12/17 14:47:39;;;;;;;6.35;4.63;;;9.80;99.90;;;;;;5129667;28;20053;-71
2021/12/17 15:01:17;;;;;;;4.97;3.90;;;9.70;99.90;;;;;;5126671;27;20469;-73
2021/12/17 15:03:44;;;;;;;6.18;4.38;;;9.70;99.90;;;;;;5129713;27;20051;-71
2021/12/17 15:06:15;;;;;;;11.43;4.43;;;9.70;99.90;;;;;;5133235;27;20047;-72
2021/12/17 15:08:44;;;;;;;6.60;4.30;;;9.60;99.90;;;;;;5124092;27;20139;-72
2021/12/17 15:11:24;;;;;;;7.03;4.10;;;9.70;99.90;;;;;;5126060;27;20047;-72
2021/12/17 15:13:51;;;;;;;5.18;3.65;;;9.60;99.90;;;;;;5132673;27;20456;-72
2021/12/17 15:16:18;;;;;;;6.85;4.07;;;9.60;99.90;;;;;;5133139;27;20059;-72
2021/12/17 15:18:45;;;;;;;4.95;3.70;;;9.60;99.90;;;;;;5133684;27;20066;-71
2021/12/17 15:21:14;;;;;;;7.82;4.60;;;9.60;99.90;;;;;;5127620;27;20435;-71